sensor_id;sensor_type;location;lat;lon;timestamp;P1;durP1;ratioP1;P2;durP2;ratioP2
13927;SDS011;7036;50.834;4.718;2022-12-07T00:00:51;7.72;;;4.45;;
13927;SDS011;7036;50.834;4.718;2022-12-07T00:03:19;5.30;;;3.92;;
13927;SDS011;7036;50.834;4.718;2022-12-07T00:05:47;4.93;;;4.50;;
13927;SDS011;7036;50.834;4.718;2022-12-07T00:08:15;4.57;;;3.40;;
13927;SDS011;7036;50.834;4.718;2022-12-07T00:10:43;5.07;;;4.27;;
13927;SDS011;7036;50.834;4.718;2022-12-07T00:13:11;4.23;;;3.83;;
13927;SDS011;7036;50.834;4.718;2022-12-07T00:15:38;4.43;;;3.90;;
13927;SDS011;7036;50.834;4.718;2022-12-07T00:18:05;4.07;;;3.67;;
13927;SDS011;7036;50.834;4.718;2022-12-07T00:20:35;3.97;;;3.58;;
13927;SDS011;7036;50.834;4.718;2022-12-07T00:23:03;4.53;;;3.63;;
13927;SDS011;7036;50.834;4.718;2022-12-07T00:25:31;5.15;;;3.90;;
13927;SDS011;7036;50.834;4.718;2022-12-07T00:28:12;4.27;;;3.87;;
13927;SDS011;7036;50.834;4.718;2022-12-07T00:30:39;3.73;;;3.33;;
13927;SDS011;7036;50.834;4.718;2022-12-07T00:33:06;4.33;;;3.50;;
13927;SDS011;7036;50.834;4.718;2022-12-07T00:35:33;4.50;;;3.73;;
13927;SDS011;7036;50.834;4.718;2022-12-07T00:38:01;5.05;;;4.22;;
13927;SDS011;7036;50.834;4.718;2022-12-07T00:40:29;5.78;;;3.88;;
13927;SDS011;7036;50.834;4.718;2022-12-07T00:42:57;4.60;;;3.42;;
13927;SDS011;7036;50.834;4.718;2022-12-07T00:45:40;4.63;;;3.80;;
13927;SDS011;7036;50.834;4.718;2022-12-07T00:48:11;3.73;;;3.43;;
13927;SDS011;7036;50.834;4.718;2022-12-07T00:50:37;4.97;;;3.70;;
13927;SDS011;7036;50.834;4.718;2022-12-07T00:53:05;5.05;;;3.80;;
13927;SDS011;7036;50.834;4.718;2022-12-07T00:55:33;3.80;;;3.50;;
13927;SDS011;7036;50.834;4.718;2022-12-07T00:58:01;5.50;;;4.07;;
13927;SDS011;7036;50.834;4.718;2022-12-07T01:00:29;5.68;;;3.83;;
13927;SDS011;7036;50.834;4.718;2022-12-07T01:02:56;4.93;;;3.80;;
13927;SDS011;7036;50.834;4.718;2022-12-07T01:05:24;3.47;;;3.17;;
13927;SDS011;7036;50.834;4.718;2022-12-07T01:07:52;4.93;;;3.78;;
13927;SDS011;7036;50.834;4.718;2022-12-07T01:10:20;4.28;;;3.88;;
13927;SDS011;7036;50.834;4.718;2022-12-07T01:12:48;6.00;;;4.00;;
13927;SDS011;7036;50.834;4.718;2022-12-07T01:15:16;5.25;;;4.13;;
13927;SDS011;7036;50.834;4.718;2022-12-07T01:17:44;6.32;;;3.83;;
13927;SDS011;7036;50.834;4.718;2022-12-07T01:20:12;3.80;;;3.47;;
13927;SDS011;7036;50.834;4.718;2022-12-07T01:22:41;4.15;;;3.40;;
13927;SDS011;7036;50.834;4.718;2022-12-07T01:25:09;3.75;;;3.45;;
13927;SDS011;7036;50.834;4.718;2022-12-07T01:27:36;3.97;;;3.58;;
13927;SDS011;7036;50.834;4.718;2022-12-07T01:30:04;4.60;;;3.78;;
13927;SDS011;7036;50.834;4.718;2022-12-07T01:32:32;4.22;;;3.72;;
13927;SDS011;7036;50.834;4.718;2022-12-07T01:34:59;5.33;;;3.20;;
13927;SDS011;7036;50.834;4.718;2022-12-07T01:37:27;4.38;;;3.75;;
13927;SDS011;7036;50.834;4.718;2022-12-07T01:39:55;4.15;;;3.75;;
13927;SDS011;7036;50.834;4.718;2022-12-07T01:42:22;4.10;;;3.70;;
13927;SDS011;7036;50.834;4.718;2022-12-07T01:47:50;3.70;;;3.40;;
13927;SDS011;7036;50.834;4.718;2022-12-07T01:50:18;4.27;;;3.87;;
13927;SDS011;7036;50.834;4.718;2022-12-07T01:52:46;4.40;;;3.63;;
13927;SDS011;7036;50.834;4.718;2022-12-07T01:55:15;4.78;;;3.30;;
13927;SDS011;7036;50.834;4.718;2022-12-07T01:57:45;3.72;;;3.42;;
13927;SDS011;7036;50.834;4.718;2022-12-07T02:00:10;4.15;;;3.75;;
13927;SDS011;7036;50.834;4.718;2022-12-07T02:02:41;3.83;;;3.42;;
13927;SDS011;7036;50.834;4.718;2022-12-07T02:05:06;3.30;;;2.97;;
13927;SDS011;7036;50.834;4.718;2022-12-07T02:07:34;4.28;;;3.42;;
13927;SDS011;7036;50.834;4.718;2022-12-07T02:10:22;3.38;;;3.08;;
13927;SDS011;7036;50.834;4.718;2022-12-07T02:12:49;5.43;;;3.57;;
13927;SDS011;7036;50.834;4.718;2022-12-07T02:15:15;4.23;;;3.83;;
13927;SDS011;7036;50.834;4.718;2022-12-07T02:17:49;4.07;;;3.60;;
13927;SDS011;7036;50.834;4.718;2022-12-07T02:23:04;3.70;;;3.40;;
13927;SDS011;7036;50.834;4.718;2022-12-07T02:31:10;5.83;;;3.80;;
13927;SDS011;7036;50.834;4.718;2022-12-07T02:33:33;4.10;;;3.10;;
13927;SDS011;7036;50.834;4.718;2022-12-07T02:36:02;3.03;;;2.83;;
13927;SDS011;7036;50.834;4.718;2022-12-07T02:38:30;4.75;;;3.40;;
13927;SDS011;7036;50.834;4.718;2022-12-07T02:41:04;3.40;;;3.10;;
13927;SDS011;7036;50.834;4.718;2022-12-07T02:43:34;3.90;;;3.50;;
13927;SDS011;7036;50.834;4.718;2022-12-07T02:46:03;5.13;;;3.20;;
13927;SDS011;7036;50.834;4.718;2022-12-07T02:48:29;3.47;;;3.17;;
13927;SDS011;7036;50.834;4.718;2022-12-07T02:50:56;5.53;;;3.73;;
13927;SDS011;7036;50.834;4.718;2022-12-07T02:53:34;4.20;;;3.65;;
13927;SDS011;7036;50.834;4.718;2022-12-07T02:56:15;3.70;;;3.40;;
13927;SDS011;7036;50.834;4.718;2022-12-07T03:01:11;4.53;;;3.63;;
13927;SDS011;7036;50.834;4.718;2022-12-07T03:03:34;3.72;;;3.42;;
13927;SDS011;7036;50.834;4.718;2022-12-07T03:06:10;4.40;;;3.60;;
13927;SDS011;7036;50.834;4.718;2022-12-07T03:11:12;4.83;;;3.70;;
13927;SDS011;7036;50.834;4.718;2022-12-07T03:19:03;7.70;;;3.07;;
13927;SDS011;7036;50.834;4.718;2022-12-07T03:21:38;4.60;;;3.50;;
13927;SDS011;7036;50.834;4.718;2022-12-07T03:24:12;3.87;;;3.53;;
13927;SDS011;7036;50.834;4.718;2022-12-07T03:26:39;4.17;;;3.40;;
13927;SDS011;7036;50.834;4.718;2022-12-07T03:29:07;3.83;;;3.40;;
13927;SDS011;7036;50.834;4.718;2022-12-07T03:31:35;3.60;;;3.30;;
13927;SDS011;7036;50.834;4.718;2022-12-07T03:34:10;5.45;;;3.35;;
13927;SDS011;7036;50.834;4.718;2022-12-07T03:36:47;3.53;;;3.23;;
13927;SDS011;7036;50.834;4.718;2022-12-07T03:41:53;3.53;;;3.23;;
13927;SDS011;7036;50.834;4.718;2022-12-07T03:44:21;4.22;;;3.38;;
13927;SDS011;7036;50.834;4.718;2022-12-07T03:49:36;6.37;;;3.57;;
13927;SDS011;7036;50.834;4.718;2022-12-07T03:54:49;3.77;;;3.37;;
13927;SDS011;7036;50.834;4.718;2022-12-07T03:57:17;4.27;;;3.30;;
13927;SDS011;7036;50.834;4.718;2022-12-07T03:59:46;3.97;;;3.67;;
13927;SDS011;7036;50.834;4.718;2022-12-07T04:02:13;3.40;;;3.10;;
13927;SDS011;7036;50.834;4.718;2022-12-07T04:04:40;3.42;;;3.13;;
13927;SDS011;7036;50.834;4.718;2022-12-07T04:07:07;3.45;;;3.15;;
13927;SDS011;7036;50.834;4.718;2022-12-07T04:09:34;3.83;;;3.40;;
13927;SDS011;7036;50.834;4.718;2022-12-07T04:12:01;4.13;;;3.83;;
13927;SDS011;7036;50.834;4.718;2022-12-07T04:14:29;4.03;;;3.67;;
13927;SDS011;7036;50.834;4.718;2022-12-07T04:16:57;4.30;;;3.60;;
13927;SDS011;7036;50.834;4.718;2022-12-07T04:19:26;3.42;;;2.90;;
13927;SDS011;7036;50.834;4.718;2022-12-07T04:21:53;4.40;;;3.30;;
13927;SDS011;7036;50.834;4.718;2022-12-07T04:24:22;3.25;;;2.95;;
13927;SDS011;7036;50.834;4.718;2022-12-07T04:26:49;3.97;;;3.57;;
13927;SDS011;7036;50.834;4.718;2022-12-07T04:29:17;4.78;;;3.88;;
13927;SDS011;7036;50.834;4.718;2022-12-07T04:31:44;3.33;;;3.03;;
13927;SDS011;7036;50.834;4.718;2022-12-07T04:34:11;3.88;;;3.10;;
13927;SDS011;7036;50.834;4.718;2022-12-07T04:36:39;3.78;;;3.35;;
13927;SDS011;7036;50.834;4.718;2022-12-07T04:39:17;4.68;;;3.53;;
13927;SDS011;7036;50.834;4.718;2022-12-07T04:41:35;4.20;;;3.03;;
13927;SDS011;7036;50.834;4.718;2022-12-07T04:44:03;4.80;;;3.30;;
13927;SDS011;7036;50.834;4.718;2022-12-07T04:46:31;3.65;;;2.90;;
13927;SDS011;7036;50.834;4.718;2022-12-07T04:48:58;3.60;;;3.30;;
13927;SDS011;7036;50.834;4.718;2022-12-07T04:51:26;3.50;;;3.20;;
13927;SDS011;7036;50.834;4.718;2022-12-07T04:53:54;5.22;;;3.72;;
13927;SDS011;7036;50.834;4.718;2022-12-07T04:56:21;5.00;;;3.58;;
13927;SDS011;7036;50.834;4.718;2022-12-07T04:58:49;4.65;;;3.20;;
13927;SDS011;7036;50.834;4.718;2022-12-07T05:01:16;4.28;;;3.53;;
13927;SDS011;7036;50.834;4.718;2022-12-07T05:03:45;4.35;;;3.08;;
13927;SDS011;7036;50.834;4.718;2022-12-07T05:06:12;3.30;;;3.00;;
13927;SDS011;7036;50.834;4.718;2022-12-07T05:08:39;5.30;;;3.28;;
13927;SDS011;7036;50.834;4.718;2022-12-07T05:11:07;3.67;;;3.38;;
13927;SDS011;7036;50.834;4.718;2022-12-07T05:13:34;5.70;;;3.50;;
13927;SDS011;7036;50.834;4.718;2022-12-07T05:16:02;3.67;;;3.30;;
13927;SDS011;7036;50.834;4.718;2022-12-07T05:18:30;3.33;;;3.03;;
13927;SDS011;7036;50.834;4.718;2022-12-07T05:20:58;4.25;;;3.17;;
13927;SDS011;7036;50.834;4.718;2022-12-07T05:23:26;3.15;;;2.85;;
13927;SDS011;7036;50.834;4.718;2022-12-07T05:25:55;3.20;;;2.90;;
13927;SDS011;7036;50.834;4.718;2022-12-07T05:28:22;3.40;;;3.10;;
13927;SDS011;7036;50.834;4.718;2022-12-07T05:30:49;3.45;;;3.15;;
13927;SDS011;7036;50.834;4.718;2022-12-07T05:33:16;3.30;;;3.10;;
13927;SDS011;7036;50.834;4.718;2022-12-07T05:35:43;3.13;;;2.78;;
13927;SDS011;7036;50.834;4.718;2022-12-07T05:38:11;3.05;;;2.63;;
13927;SDS011;7036;50.834;4.718;2022-12-07T05:40:39;3.28;;;2.90;;
13927;SDS011;7036;50.834;4.718;2022-12-07T05:43:07;3.55;;;3.25;;
13927;SDS011;7036;50.834;4.718;2022-12-07T05:45:34;3.88;;;3.22;;
13927;SDS011;7036;50.834;4.718;2022-12-07T05:48:02;3.05;;;2.75;;
13927;SDS011;7036;50.834;4.718;2022-12-07T05:50:30;4.05;;;2.97;;
13927;SDS011;7036;50.834;4.718;2022-12-07T05:52:58;3.10;;;2.80;;
13927;SDS011;7036;50.834;4.718;2022-12-07T05:55:26;3.22;;;2.90;;
13927;SDS011;7036;50.834;4.718;2022-12-07T05:57:55;3.75;;;3.35;;
13927;SDS011;7036;50.834;4.718;2022-12-07T06:00:40;3.67;;;3.07;;
13927;SDS011;7036;50.834;4.718;2022-12-07T06:03:08;3.13;;;2.83;;
13927;SDS011;7036;50.834;4.718;2022-12-07T06:05:36;2.92;;;2.63;;
13927;SDS011;7036;50.834;4.718;2022-12-07T06:08:04;3.28;;;2.97;;
13927;SDS011;7036;50.834;4.718;2022-12-07T06:10:32;2.80;;;2.53;;
13927;SDS011;7036;50.834;4.718;2022-12-07T06:13:02;3.10;;;2.80;;
13927;SDS011;7036;50.834;4.718;2022-12-07T06:15:28;2.90;;;2.57;;
13927;SDS011;7036;50.834;4.718;2022-12-07T06:17:56;2.70;;;2.50;;
13927;SDS011;7036;50.834;4.718;2022-12-07T06:20:24;3.25;;;2.58;;
13927;SDS011;7036;50.834;4.718;2022-12-07T06:22:52;3.20;;;2.30;;
13927;SDS011;7036;50.834;4.718;2022-12-07T06:25:20;2.90;;;2.60;;
13927;SDS011;7036;50.834;4.718;2022-12-07T06:27:48;2.63;;;2.25;;
13927;SDS011;7036;50.834;4.718;2022-12-07T06:30:16;2.53;;;2.17;;
13927;SDS011;7036;50.834;4.718;2022-12-07T06:32:44;2.10;;;1.90;;
13927;SDS011;7036;50.834;4.718;2022-12-07T06:35:12;2.50;;;2.30;;
13927;SDS011;7036;50.834;4.718;2022-12-07T06:37:39;2.33;;;2.10;;
13927;SDS011;7036;50.834;4.718;2022-12-07T06:40:08;2.47;;;1.88;;
13927;SDS011;7036;50.834;4.718;2022-12-07T06:42:35;3.13;;;2.30;;
13927;SDS011;7036;50.834;4.718;2022-12-07T06:45:04;3.20;;;2.40;;
13927;SDS011;7036;50.834;4.718;2022-12-07T06:47:31;2.30;;;2.10;;
13927;SDS011;7036;50.834;4.718;2022-12-07T06:50:00;2.93;;;2.43;;
13927;SDS011;7036;50.834;4.718;2022-12-07T06:52:26;2.77;;;2.27;;
13927;SDS011;7036;50.834;4.718;2022-12-07T06:54:54;2.63;;;2.30;;
13927;SDS011;7036;50.834;4.718;2022-12-07T06:57:22;2.50;;;2.30;;
13927;SDS011;7036;50.834;4.718;2022-12-07T06:59:50;2.40;;;2.08;;
13927;SDS011;7036;50.834;4.718;2022-12-07T07:02:18;2.33;;;2.10;;
13927;SDS011;7036;50.834;4.718;2022-12-07T07:04:46;2.83;;;2.13;;
13927;SDS011;7036;50.834;4.718;2022-12-07T07:07:14;2.17;;;2.00;;
13927;SDS011;7036;50.834;4.718;2022-12-07T07:09:42;2.47;;;2.17;;
13927;SDS011;7036;50.834;4.718;2022-12-07T07:12:09;2.42;;;2.22;;
13927;SDS011;7036;50.834;4.718;2022-12-07T07:14:37;7.38;;;2.97;;
13927;SDS011;7036;50.834;4.718;2022-12-07T07:17:05;2.38;;;2.17;;
13927;SDS011;7036;50.834;4.718;2022-12-07T07:19:33;4.88;;;2.58;;
13927;SDS011;7036;50.834;4.718;2022-12-07T07:22:01;3.60;;;2.47;;
13927;SDS011;7036;50.834;4.718;2022-12-07T07:24:29;4.35;;;2.17;;
13927;SDS011;7036;50.834;4.718;2022-12-07T07:26:57;4.20;;;2.20;;
13927;SDS011;7036;50.834;4.718;2022-12-07T07:29:25;5.53;;;2.72;;
13927;SDS011;7036;50.834;4.718;2022-12-07T07:31:53;3.13;;;2.42;;
13927;SDS011;7036;50.834;4.718;2022-12-07T07:34:20;4.40;;;2.22;;
13927;SDS011;7036;50.834;4.718;2022-12-07T07:36:48;2.67;;;2.47;;
13927;SDS011;7036;50.834;4.718;2022-12-07T07:39:15;4.67;;;2.43;;
13927;SDS011;7036;50.834;4.718;2022-12-07T07:41:43;4.80;;;2.17;;
13927;SDS011;7036;50.834;4.718;2022-12-07T07:44:11;3.00;;;2.17;;
13927;SDS011;7036;50.834;4.718;2022-12-07T07:46:39;4.75;;;2.40;;
13927;SDS011;7036;50.834;4.718;2022-12-07T07:49:07;2.95;;;2.65;;
13927;SDS011;7036;50.834;4.718;2022-12-07T07:51:34;5.65;;;3.22;;
13927;SDS011;7036;50.834;4.718;2022-12-07T07:54:02;4.75;;;2.75;;
13927;SDS011;7036;50.834;4.718;2022-12-07T07:56:30;4.43;;;2.58;;
13927;SDS011;7036;50.834;4.718;2022-12-07T07:58:58;2.70;;;2.25;;
13927;SDS011;7036;50.834;4.718;2022-12-07T08:01:27;8.00;;;3.05;;
13927;SDS011;7036;50.834;4.718;2022-12-07T08:03:53;3.43;;;3.13;;
13927;SDS011;7036;50.834;4.718;2022-12-07T08:06:22;5.97;;;3.03;;
13927;SDS011;7036;50.834;4.718;2022-12-07T08:08:49;3.90;;;2.90;;
13927;SDS011;7036;50.834;4.718;2022-12-07T08:11:17;5.03;;;2.72;;
13927;SDS011;7036;50.834;4.718;2022-12-07T08:13:45;5.68;;;3.15;;
13927;SDS011;7036;50.834;4.718;2022-12-07T08:16:13;7.65;;;3.72;;
13927;SDS011;7036;50.834;4.718;2022-12-07T08:18:42;5.35;;;3.00;;
13927;SDS011;7036;50.834;4.718;2022-12-07T08:21:12;5.57;;;3.17;;
13927;SDS011;7036;50.834;4.718;2022-12-07T08:23:38;6.40;;;3.47;;
13927;SDS011;7036;50.834;4.718;2022-12-07T08:26:08;4.03;;;3.20;;
13927;SDS011;7036;50.834;4.718;2022-12-07T08:28:34;10.77;;;3.42;;
13927;SDS011;7036;50.834;4.718;2022-12-07T08:31:01;5.43;;;3.40;;
13927;SDS011;7036;50.834;4.718;2022-12-07T08:33:37;10.03;;;3.80;;
13927;SDS011;7036;50.834;4.718;2022-12-07T08:36:05;7.07;;;3.13;;
13927;SDS011;7036;50.834;4.718;2022-12-07T08:38:33;7.57;;;3.35;;
13927;SDS011;7036;50.834;4.718;2022-12-07T08:40:59;7.88;;;2.90;;
13927;SDS011;7036;50.834;4.718;2022-12-07T08:43:27;3.67;;;2.55;;
13927;SDS011;7036;50.834;4.718;2022-12-07T08:48:54;5.40;;;3.23;;
13927;SDS011;7036;50.834;4.718;2022-12-07T08:51:19;7.33;;;3.10;;
13927;SDS011;7036;50.834;4.718;2022-12-07T08:53:46;5.15;;;3.10;;
13927;SDS011;7036;50.834;4.718;2022-12-07T08:56:14;4.20;;;3.28;;
13927;SDS011;7036;50.834;4.718;2022-12-07T08:58:42;15.40;;;4.85;;
13927;SDS011;7036;50.834;4.718;2022-12-07T09:01:10;8.95;;;3.83;;
13927;SDS011;7036;50.834;4.718;2022-12-07T09:03:38;7.70;;;3.75;;
13927;SDS011;7036;50.834;4.718;2022-12-07T09:06:06;7.72;;;3.50;;
13927;SDS011;7036;50.834;4.718;2022-12-07T09:08:43;10.15;;;3.70;;
13927;SDS011;7036;50.834;4.718;2022-12-07T09:11:08;10.83;;;3.10;;
13927;SDS011;7036;50.834;4.718;2022-12-07T09:13:34;8.87;;;2.83;;
13927;SDS011;7036;50.834;4.718;2022-12-07T09:16:03;8.63;;;3.90;;
13927;SDS011;7036;50.834;4.718;2022-12-07T09:18:30;7.33;;;3.37;;
13927;SDS011;7036;50.834;4.718;2022-12-07T09:20:58;5.35;;;3.53;;
13927;SDS011;7036;50.834;4.718;2022-12-07T09:23:26;9.82;;;3.38;;
13927;SDS011;7036;50.834;4.718;2022-12-07T09:25:53;14.13;;;3.60;;
13927;SDS011;7036;50.834;4.718;2022-12-07T09:28:20;9.07;;;3.10;;
13927;SDS011;7036;50.834;4.718;2022-12-07T09:30:49;9.15;;;3.72;;
13927;SDS011;7036;50.834;4.718;2022-12-07T09:33:16;8.23;;;3.30;;
13927;SDS011;7036;50.834;4.718;2022-12-07T09:35:47;8.93;;;3.50;;
13927;SDS011;7036;50.834;4.718;2022-12-07T09:38:13;7.63;;;2.80;;
13927;SDS011;7036;50.834;4.718;2022-12-07T09:40:43;11.57;;;4.68;;
13927;SDS011;7036;50.834;4.718;2022-12-07T09:43:13;10.00;;;4.07;;
13927;SDS011;7036;50.834;4.718;2022-12-07T09:45:47;15.20;;;5.33;;
13927;SDS011;7036;50.834;4.718;2022-12-07T09:48:22;17.50;;;4.63;;
13927;SDS011;7036;50.834;4.718;2022-12-07T09:50:47;23.47;;;5.07;;
13927;SDS011;7036;50.834;4.718;2022-12-07T09:55:59;14.17;;;4.53;;
13927;SDS011;7036;50.834;4.718;2022-12-07T09:58:27;8.70;;;3.85;;
13927;SDS011;7036;50.834;4.718;2022-12-07T10:00:57;25.60;;;4.68;;
13927;SDS011;7036;50.834;4.718;2022-12-07T10:03:27;21.13;;;5.07;;
13927;SDS011;7036;50.834;4.718;2022-12-07T10:05:54;23.38;;;6.18;;
13927;SDS011;7036;50.834;4.718;2022-12-07T10:11:11;36.90;;;9.17;;
13927;SDS011;7036;50.834;4.718;2022-12-07T10:13:41;35.47;;;7.40;;
13927;SDS011;7036;50.834;4.718;2022-12-07T10:16:32;35.33;;;5.77;;
13927;SDS011;7036;50.834;4.718;2022-12-07T10:18:50;15.43;;;4.53;;
13927;SDS011;7036;50.834;4.718;2022-12-07T10:21:18;15.43;;;4.70;;
13927;SDS011;7036;50.834;4.718;2022-12-07T10:29:00;20.73;;;6.47;;
13927;SDS011;7036;50.834;4.718;2022-12-07T10:31:26;27.33;;;6.73;;
13927;SDS011;7036;50.834;4.718;2022-12-07T10:33:57;28.23;;;5.93;;
13927;SDS011;7036;50.834;4.718;2022-12-07T10:36:33;14.80;;;5.53;;
13927;SDS011;7036;50.834;4.718;2022-12-07T10:39:04;19.10;;;4.43;;
13927;SDS011;7036;50.834;4.718;2022-12-07T10:41:30;19.92;;;4.88;;
13927;SDS011;7036;50.834;4.718;2022-12-07T10:43:58;16.52;;;5.25;;
13927;SDS011;7036;50.834;4.718;2022-12-07T10:52:01;24.77;;;5.20;;
13927;SDS011;7036;50.834;4.718;2022-12-07T10:57:56;15.97;;;3.90;;
13927;SDS011;7036;50.834;4.718;2022-12-07T11:00:30;22.50;;;3.97;;
13927;SDS011;7036;50.834;4.718;2022-12-07T11:03:21;14.87;;;4.37;;
13927;SDS011;7036;50.834;4.718;2022-12-07T11:06:01;22.37;;;5.27;;
13927;SDS011;7036;50.834;4.718;2022-12-07T11:08:41;28.13;;;5.10;;
13927;SDS011;7036;50.834;4.718;2022-12-07T11:11:15;23.73;;;4.83;;
13927;SDS011;7036;50.834;4.718;2022-12-07T11:13:41;18.23;;;4.47;;
13927;SDS011;7036;50.834;4.718;2022-12-07T11:16:27;13.20;;;4.57;;
13927;SDS011;7036;50.834;4.718;2022-12-07T11:21:39;14.50;;;4.05;;
13927;SDS011;7036;50.834;4.718;2022-12-07T11:23:56;15.52;;;4.70;;
13927;SDS011;7036;50.834;4.718;2022-12-07T11:26:31;11.47;;;4.10;;
13927;SDS011;7036;50.834;4.718;2022-12-07T11:29:32;9.57;;;3.33;;
13927;SDS011;7036;50.834;4.718;2022-12-07T11:32:22;22.63;;;4.27;;
13927;SDS011;7036;50.834;4.718;2022-12-07T11:35:05;22.60;;;4.97;;
13927;SDS011;7036;50.834;4.718;2022-12-07T11:37:38;17.07;;;4.20;;
13927;SDS011;7036;50.834;4.718;2022-12-07T11:42:41;16.17;;;3.97;;
13927;SDS011;7036;50.834;4.718;2022-12-07T11:45:13;17.83;;;4.37;;
13927;SDS011;7036;50.834;4.718;2022-12-07T11:50:32;10.87;;;4.00;;
13927;SDS011;7036;50.834;4.718;2022-12-07T11:52:58;20.67;;;4.83;;
13927;SDS011;7036;50.834;4.718;2022-12-07T11:55:26;11.98;;;4.18;;
13927;SDS011;7036;50.834;4.718;2022-12-07T11:57:53;18.08;;;4.13;;
13927;SDS011;7036;50.834;4.718;2022-12-07T12:00:19;9.65;;;3.65;;
13927;SDS011;7036;50.834;4.718;2022-12-07T12:02:49;11.03;;;4.17;;
13927;SDS011;7036;50.834;4.718;2022-12-07T12:05:16;9.27;;;3.30;;
13927;SDS011;7036;50.834;4.718;2022-12-07T12:07:42;10.48;;;3.80;;
13927;SDS011;7036;50.834;4.718;2022-12-07T12:10:23;10.30;;;3.37;;
13927;SDS011;7036;50.834;4.718;2022-12-07T12:12:57;7.63;;;3.10;;
13927;SDS011;7036;50.834;4.718;2022-12-07T12:15:51;10.30;;;3.33;;
13927;SDS011;7036;50.834;4.718;2022-12-07T12:18:25;9.05;;;3.40;;
13927;SDS011;7036;50.834;4.718;2022-12-07T12:21:05;14.40;;;3.17;;
13927;SDS011;7036;50.834;4.718;2022-12-07T12:23:35;15.70;;;4.70;;
13927;SDS011;7036;50.834;4.718;2022-12-07T12:26:03;9.07;;;3.67;;
13927;SDS011;7036;50.834;4.718;2022-12-07T12:33:48;12.50;;;4.07;;
13927;SDS011;7036;50.834;4.718;2022-12-07T12:38:49;11.23;;;3.55;;
13927;SDS011;7036;50.834;4.718;2022-12-07T12:51:48;10.20;;;3.30;;
13927;SDS011;7036;50.834;4.718;2022-12-07T12:54:21;8.50;;;3.00;;
13927;SDS011;7036;50.834;4.718;2022-12-07T12:56:51;5.72;;;2.97;;
13927;SDS011;7036;50.834;4.718;2022-12-07T12:59:39;5.03;;;2.83;;
13927;SDS011;7036;50.834;4.718;2022-12-07T13:02:16;6.00;;;2.80;;
13927;SDS011;7036;50.834;4.718;2022-12-07T13:04:52;6.37;;;3.03;;
13927;SDS011;7036;50.834;4.718;2022-12-07T13:10:52;5.57;;;2.63;;
13927;SDS011;7036;50.834;4.718;2022-12-07T13:23:30;5.70;;;2.60;;
13927;SDS011;7036;50.834;4.718;2022-12-07T13:26:09;5.03;;;2.53;;
13927;SDS011;7036;50.834;4.718;2022-12-07T13:28:41;5.90;;;2.60;;
13927;SDS011;7036;50.834;4.718;2022-12-07T13:31:13;4.97;;;2.38;;
13927;SDS011;7036;50.834;4.718;2022-12-07T13:33:38;5.97;;;2.50;;
13927;SDS011;7036;50.834;4.718;2022-12-07T13:36:09;8.80;;;2.35;;
13927;SDS011;7036;50.834;4.718;2022-12-07T13:38:34;3.85;;;2.30;;
13927;SDS011;7036;50.834;4.718;2022-12-07T13:41:04;6.45;;;2.55;;
13927;SDS011;7036;50.834;4.718;2022-12-07T13:43:29;6.07;;;3.30;;
13927;SDS011;7036;50.834;4.718;2022-12-07T13:45:57;13.55;;;8.43;;
13927;SDS011;7036;50.834;4.718;2022-12-07T13:48:30;15.60;;;11.05;;
13927;SDS011;7036;50.834;4.718;2022-12-07T13:50:56;15.83;;;10.20;;
13927;SDS011;7036;50.834;4.718;2022-12-07T13:53:23;11.93;;;9.83;;
13927;SDS011;7036;50.834;4.718;2022-12-07T13:55:50;18.23;;;10.23;;
13927;SDS011;7036;50.834;4.718;2022-12-07T13:58:17;16.52;;;10.40;;
13927;SDS011;7036;50.834;4.718;2022-12-07T14:00:44;17.13;;;10.75;;
13927;SDS011;7036;50.834;4.718;2022-12-07T14:05:40;14.10;;;10.57;;
13927;SDS011;7036;50.834;4.718;2022-12-07T14:15:54;12.97;;;9.73;;
13927;SDS011;7036;50.834;4.718;2022-12-07T14:18:29;11.23;;;9.07;;
13927;SDS011;7036;50.834;4.718;2022-12-07T14:21:05;15.47;;;8.87;;
13927;SDS011;7036;50.834;4.718;2022-12-07T14:23:28;13.83;;;8.90;;
13927;SDS011;7036;50.834;4.718;2022-12-07T14:26:15;14.07;;;9.07;;
13927;SDS011;7036;50.834;4.718;2022-12-07T14:28:42;11.33;;;7.47;;
13927;SDS011;7036;50.834;4.718;2022-12-07T14:33:41;16.20;;;8.03;;
13927;SDS011;7036;50.834;4.718;2022-12-07T14:36:10;10.98;;;6.95;;
13927;SDS011;7036;50.834;4.718;2022-12-07T14:38:36;10.60;;;6.97;;
13927;SDS011;7036;50.834;4.718;2022-12-07T14:41:04;11.70;;;6.70;;
13927;SDS011;7036;50.834;4.718;2022-12-07T14:43:49;8.23;;;6.57;;
13927;SDS011;7036;50.834;4.718;2022-12-07T14:46:16;8.57;;;6.82;;
13927;SDS011;7036;50.834;4.718;2022-12-07T14:48:44;8.07;;;6.45;;
13927;SDS011;7036;50.834;4.718;2022-12-07T14:51:11;8.32;;;5.85;;
13927;SDS011;7036;50.834;4.718;2022-12-07T14:53:49;11.77;;;6.72;;
13927;SDS011;7036;50.834;4.718;2022-12-07T14:56:06;11.13;;;5.88;;
13927;SDS011;7036;50.834;4.718;2022-12-07T14:58:34;8.30;;;6.05;;
13927;SDS011;7036;50.834;4.718;2022-12-07T15:01:02;7.68;;;5.60;;
13927;SDS011;7036;50.834;4.718;2022-12-07T15:03:30;7.72;;;5.45;;
13927;SDS011;7036;50.834;4.718;2022-12-07T15:05:57;8.77;;;5.70;;
13927;SDS011;7036;50.834;4.718;2022-12-07T15:08:25;7.10;;;5.18;;
13927;SDS011;7036;50.834;4.718;2022-12-07T15:10:53;14.48;;;5.78;;
13927;SDS011;7036;50.834;4.718;2022-12-07T15:13:21;8.05;;;5.20;;
13927;SDS011;7036;50.834;4.718;2022-12-07T15:16:13;8.37;;;4.93;;
13927;SDS011;7036;50.834;4.718;2022-12-07T15:18:39;8.73;;;4.67;;
13927;SDS011;7036;50.834;4.718;2022-12-07T15:21:15;8.63;;;4.53;;
13927;SDS011;7036;50.834;4.718;2022-12-07T15:23:43;13.40;;;5.40;;
13927;SDS011;7036;50.834;4.718;2022-12-07T15:26:10;8.15;;;4.85;;
13927;SDS011;7036;50.834;4.718;2022-12-07T15:28:37;14.15;;;5.53;;
13927;SDS011;7036;50.834;4.718;2022-12-07T15:31:10;7.68;;;4.68;;
13927;SDS011;7036;50.834;4.718;2022-12-07T15:33:39;19.73;;;5.80;;
13927;SDS011;7036;50.834;4.718;2022-12-07T15:36:07;10.87;;;4.83;;
13927;SDS011;7036;50.834;4.718;2022-12-07T15:38:34;13.37;;;5.20;;
13927;SDS011;7036;50.834;4.718;2022-12-07T15:41:00;14.37;;;5.63;;
13927;SDS011;7036;50.834;4.718;2022-12-07T15:43:28;7.32;;;3.90;;
13927;SDS011;7036;50.834;4.718;2022-12-07T15:46:13;9.20;;;3.87;;
13927;SDS011;7036;50.834;4.718;2022-12-07T15:48:40;15.02;;;4.47;;
13927;SDS011;7036;50.834;4.718;2022-12-07T15:51:07;8.30;;;3.72;;
13927;SDS011;7036;50.834;4.718;2022-12-07T15:53:34;12.48;;;4.63;;
13927;SDS011;7036;50.834;4.718;2022-12-07T15:56:05;7.10;;;3.92;;
13927;SDS011;7036;50.834;4.718;2022-12-07T15:58:30;7.57;;;3.83;;
13927;SDS011;7036;50.834;4.718;2022-12-07T16:00:57;11.75;;;4.00;;
13927;SDS011;7036;50.834;4.718;2022-12-07T16:03:24;18.75;;;5.25;;
13927;SDS011;7036;50.834;4.718;2022-12-07T16:05:52;9.68;;;3.83;;
13927;SDS011;7036;50.834;4.718;2022-12-07T16:08:19;11.18;;;4.18;;
13927;SDS011;7036;50.834;4.718;2022-12-07T16:10:46;7.35;;;3.58;;
13927;SDS011;7036;50.834;4.718;2022-12-07T16:13:13;10.93;;;4.10;;
13927;SDS011;7036;50.834;4.718;2022-12-07T16:15:41;10.85;;;3.83;;
13927;SDS011;7036;50.834;4.718;2022-12-07T16:18:08;14.30;;;4.22;;
13927;SDS011;7036;50.834;4.718;2022-12-07T16:20:35;8.07;;;4.07;;
13927;SDS011;7036;50.834;4.718;2022-12-07T16:23:04;8.27;;;3.90;;
13927;SDS011;7036;50.834;4.718;2022-12-07T16:25:31;10.73;;;3.50;;
13927;SDS011;7036;50.834;4.718;2022-12-07T16:27:58;11.68;;;4.20;;
13927;SDS011;7036;50.834;4.718;2022-12-07T16:30:25;15.52;;;3.70;;
13927;SDS011;7036;50.834;4.718;2022-12-07T16:32:52;13.85;;;3.58;;
13927;SDS011;7036;50.834;4.718;2022-12-07T16:35:19;12.10;;;3.50;;
13927;SDS011;7036;50.834;4.718;2022-12-07T16:37:47;12.05;;;4.10;;
13927;SDS011;7036;50.834;4.718;2022-12-07T16:40:14;19.73;;;5.57;;
13927;SDS011;7036;50.834;4.718;2022-12-07T16:42:42;11.48;;;4.32;;
13927;SDS011;7036;50.834;4.718;2022-12-07T16:45:09;11.98;;;3.47;;
13927;SDS011;7036;50.834;4.718;2022-12-07T16:47:37;9.43;;;3.17;;
13927;SDS011;7036;50.834;4.718;2022-12-07T16:50:05;19.02;;;3.58;;
13927;SDS011;7036;50.834;4.718;2022-12-07T16:52:32;8.40;;;3.97;;
13927;SDS011;7036;50.834;4.718;2022-12-07T16:54:59;14.65;;;3.83;;